Time;durP1;ratioP1;P1;durP2;ratioP2;P2;SDS_P1;SDS_P2;PMS_P1;PMS_P2;Temp;Humidity;BMP_temperature;BMP_pressure;BME280_temperature;BME280_humidity;BME280_pressure;Samples;Min_cycle;Max_cycle;Signal;HPM_P1;HPM_P2
2022/06/12 00:01:06;;;;;;;1377.30;999.90;;;13.30;80.70;;;;;;4970049;28;20305;-68
2022/06/12 00:03:33;;;;;;;1529.33;999.90;;;13.30;81.00;;;;;;4998552;28;20054;-68
2022/06/12 00:06:00;;;;;;;1474.07;999.90;;;13.30;80.40;;;;;;4972144;28;20294;-68
2022/06/12 00:08:27;;;;;;;1466.93;999.90;;;13.30;80.40;;;;;;4983230;28;20392;-68
2022/06/12 00:10:56;;;;;;;1590.40;999.90;;;13.30;80.50;;;;;;4986714;28;20845;-68
2022/06/12 00:13:29;;;;;;;1574.77;999.90;;;13.20;80.80;;;;;;4986797;28;20305;-68
2022/06/12 00:15:56;;;;;;;1563.33;999.90;;;13.20;80.60;;;;;;4962213;28;20294;-68
2022/06/12 00:18:23;;;;;;;1581.43;999.90;;;13.20;81.10;;;;;;4977372;28;20312;-68
2022/06/12 00:21:10;;;;;;;1544.57;999.90;;;13.20;80.70;;;;;;4962000;28;20809;-68
2022/06/12 00:23:50;;;;;;;1567.73;999.90;;;13.20;81.10;;;;;;4971801;28;20298;-68
2022/06/12 00:26:22;;;;;;;1591.83;999.90;;;13.20;81.10;;;;;;4983937;28;20514;-68
2022/06/12 00:28:48;;;;;;;1511.33;999.90;;;13.20;81.10;;;;;;4982615;28;20389;-68
2022/06/12 00:31:13;;;;;;;1517.77;999.90;;;13.30;81.10;;;;;;4981674;28;20754;-68
2022/06/12 00:33:39;;;;;;;1414.57;999.90;;;13.30;81.30;;;;;;4975948;28;20318;-68
2022/06/12 00:36:05;;;;;;;1463.57;998.10;;;13.30;81.50;;;;;;4982966;28;20129;-68
2022/06/12 00:38:31;;;;;;;1486.63;999.90;;;13.30;81.80;;;;;;4980883;28;20050;-68
2022/06/12 00:40:57;;;;;;;1511.67;999.90;;;13.30;81.70;;;;;;4986660;28;20046;-68
2022/06/12 00:43:27;;;;;;;1356.07;987.23;;;13.30;82.00;;;;;;4970078;28;20293;-68
2022/06/12 00:45:59;;;;;;;1509.63;999.90;;;13.30;82.10;;;;;;4985583;28;20057;-68
2022/06/12 00:48:34;;;;;;;1424.30;999.90;;;13.30;82.20;;;;;;4980038;28;20312;-68
2022/06/12 00:51:10;;;;;;;1399.72;999.90;;;13.30;82.10;;;;;;4970021;28;20362;-68
2022/06/12 00:53:49;;;;;;;1387.07;999.73;;;13.30;81.80;;;;;;4957464;28;20054;-68
2022/06/12 00:56:24;;;;;;;1382.93;999.90;;;13.30;82.10;;;;;;4985441;28;20830;-68
2022/06/12 00:58:58;;;;;;;1403.25;999.90;;;13.20;82.30;;;;;;4953298;28;20911;-68
2022/06/12 01:01:32;;;;;;;1315.25;988.03;;;13.20;82.00;;;;;;4981072;28;20038;-68
2022/06/12 01:06:44;;;;;;;1382.70;999.90;;;13.20;82.60;;;;;;4999649;28;20797;-68
2022/06/12 01:09:16;;;;;;;1485.73;999.90;;;13.10;82.80;;;;;;4983867;28;20316;-68
2022/06/12 01:11:46;;;;;;;1316.90;999.90;;;13.10;82.90;;;;;;4994700;28;20302;-68
2022/06/12 01:14:15;;;;;;;1349.43;999.90;;;13.10;83.10;;;;;;4985656;28;20364;-68
2022/06/12 01:16:45;;;;;;;1387.43;999.90;;;13.10;82.70;;;;;;4974209;28;20352;-68
2022/06/12 01:19:39;;;;;;;1333.40;999.90;;;13.10;82.90;;;;;;4969749;28;20313;-68
2022/06/12 01:22:52;;;;;;;1292.60;999.90;;;13.10;82.90;;;;;;4978268;28;20675;-68
2022/06/12 01:26:05;;;;;;;1310.47;999.90;;;13.00;82.70;;;;;;4970205;28;20327;-68
2022/06/12 01:28:40;;;;;;;1282.07;998.47;;;13.00;82.90;;;;;;4951879;28;20344;-68
2022/06/12 01:31:24;;;;;;;1310.10;999.90;;;12.90;83.10;;;;;;4958577;28;20872;-68
2022/06/12 01:34:10;;;;;;;1200.50;994.60;;;12.90;83.50;;;;;;4990956;28;20321;-68
2022/06/12 01:36:53;;;;;;;1227.73;991.07;;;12.80;83.40;;;;;;4984058;28;20770;-68
2022/06/12 01:39:54;;;;;;;1259.90;999.90;;;12.80;83.40;;;;;;4989914;28;20305;-68
2022/06/12 01:42:27;;;;;;;1312.27;999.90;;;12.70;83.70;;;;;;4998284;28;20294;-68
2022/06/12 01:44:58;;;;;;;1493.87;999.90;;;12.70;83.70;;;;;;4980743;28;20297;-68
2022/06/12 01:47:47;;;;;;;1389.37;999.90;;;12.70;83.80;;;;;;4999487;28;20316;-68
2022/06/12 01:50:19;;;;;;;1338.90;996.17;;;12.80;84.00;;;;;;4984771;28;20294;-68
2022/06/12 01:53:07;;;;;;;1373.47;999.90;;;12.80;84.00;;;;;;4969017;28;20038;-68
2022/06/12 01:55:52;;;;;;;1371.80;999.60;;;12.80;84.50;;;;;;4978863;28;20856;-68
2022/06/12 01:58:29;;;;;;;1350.67;999.90;;;12.80;84.70;;;;;;4977348;28;20392;-68
2022/06/12 02:01:14;;;;;;;1320.50;988.47;;;12.80;84.60;;;;;;4980175;28;20314;-68
2022/06/12 02:04:12;;;;;;;1259.00;994.03;;;12.80;84.50;;;;;;4996673;28;20322;-68
2022/06/12 02:06:45;;;;;;;1315.93;989.67;;;12.80;84.60;;;;;;4978056;28;20042;-68
2022/06/12 02:09:20;;;;;;;1353.20;999.90;;;12.80;84.40;;;;;;4980304;28;20857;-68
2022/06/12 02:14:45;;;;;;;1329.10;989.83;;;12.70;85.30;;;;;;4975277;28;20050;-68
2022/06/12 02:17:23;;;;;;;1242.77;974.70;;;12.70;85.50;;;;;;4974802;28;20294;-68
2022/06/12 02:19:50;;;;;;;1263.40;999.90;;;12.70;85.50;;;;;;4969726;28;20294;-68
2022/06/12 02:22:23;;;;;;;1229.77;999.90;;;12.70;85.30;;;;;;4970857;28;20300;-68
2022/06/12 02:24:57;;;;;;;1244.40;997.33;;;12.70;86.10;;;;;;4975267;28;20361;-68
2022/06/12 02:27:47;;;;;;;1167.72;977.25;;;12.70;87.10;;;;;;4977506;28;20397;-68
2022/06/12 02:30:15;;;;;;;1357.60;999.90;;;12.70;87.30;;;;;;4964149;28;20044;-68
2022/06/12 02:33:00;;;;;;;1367.37;999.90;;;12.70;87.70;;;;;;4980832;28;20305;-68
2022/06/12 02:35:41;;;;;;;1274.10;960.27;;;12.70;87.50;;;;;;4982231;28;20306;-68
2022/06/12 02:38:21;;;;;;;1403.33;999.90;;;12.70;87.30;;;;;;4966047;28;20916;-68
2022/06/12 02:41:01;;;;;;;1384.80;970.43;;;12.70;87.60;;;;;;4977855;28;20794;-68
2022/06/12 02:43:31;;;;;;;1326.63;999.90;;;12.70;87.60;;;;;;4976033;28;20317;-68
2022/06/12 02:46:12;;;;;;;1336.37;986.67;;;12.70;87.90;;;;;;4971324;28;20298;-68
2022/06/12 02:48:38;;;;;;;1411.17;999.90;;;12.80;87.70;;;;;;4973042;28;20313;-68
2022/06/12 02:51:13;;;;;;;1436.13;989.87;;;12.80;87.70;;;;;;4983291;28;20297;-68
2022/06/12 02:53:49;;;;;;;;;;;12.80;87.80;;;;;;4981523;28;20070;-68
2022/06/12 02:56:42;;;;;;;1167.93;981.83;;;12.80;88.30;;;;;;4966048;28;19929;-68
2022/06/12 02:59:20;;;;;;;1276.90;981.13;;;12.80;88.10;;;;;;4995416;28;20077;-68
2022/06/12 03:02:12;;;;;;;1333.77;981.73;;;12.90;88.00;;;;;;4969940;28;20301;-68
2022/06/12 03:04:54;;;;;;;1299.73;999.90;;;12.90;87.90;;;;;;4983743;28;20726;-68
2022/06/12 03:07:21;;;;;;;1292.00;993.47;;;12.90;88.00;;;;;;4975362;28;20309;-68
2022/06/12 03:09:47;;;;;;;1399.87;999.90;;;13.00;88.50;;;;;;4979427;28;20702;-68
2022/06/12 03:12:13;;;;;;;1456.37;999.90;;;13.00;88.70;;;;;;4981865;28;20298;-68
2022/06/12 03:14:39;;;;;;;1419.57;999.90;;;13.10;88.50;;;;;;4999956;28;20093;-68
2022/06/12 03:17:05;;;;;;;1465.43;999.90;;;13.10;88.60;;;;;;4949528;28;20053;-68
2022/06/12 03:19:46;;;;;;;1486.17;999.90;;;13.20;89.90;;;;;;4978089;28;20759;-68
2022/06/12 03:22:23;;;;;;;1492.47;999.90;;;13.30;90.00;;;;;;4986236;28;20439;-68
2022/06/12 03:24:53;;;;;;;1503.93;999.90;;;13.30;89.50;;;;;;4972375;28;20301;-69
2022/06/12 03:27:38;;;;;;;1570.70;999.90;;;13.40;89.40;;;;;;4982665;28;20306;-68
2022/06/12 03:30:21;;;;;;;1452.05;999.90;;;13.40;89.30;;;;;;4968941;28;20329;-68
2022/06/12 03:33:02;;;;;;;1340.77;990.33;;;13.40;89.30;;;;;;4991151;28;20069;-68
2022/06/12 03:35:37;;;;;;;1393.23;999.90;;;13.40;89.90;;;;;;4982448;28;20301;-68
2022/06/12 03:38:29;;;;;;;1371.47;999.90;;;13.40;89.70;;;;;;4980554;28;20293;-68
2022/06/12 03:41:15;;;;;;;1226.20;987.77;;;13.40;89.20;;;;;;4980394;28;20313;-68
2022/06/12 03:44:01;;;;;;;1377.90;999.90;;;13.50;89.00;;;;;;4991664;28;20348;-68
2022/06/12 03:46:42;;;;;;;1300.60;991.87;;;13.40;89.10;;;;;;4975039;28;20305;-68
2022/06/12 03:49:33;;;;;;;1253.83;986.13;;;13.40;89.00;;;;;;4992472;28;20316;-68
2022/06/12 03:52:20;;;;;;;1332.13;999.90;;;13.50;89.00;;;;;;4983697;28;20682;-68
2022/06/12 03:55:03;;;;;;;1416.97;999.90;;;13.50;89.20;;;;;;4983831;28;20301;-68
2022/06/12 03:57:52;;;;;;;1345.30;995.73;;;13.50;89.10;;;;;;4978193;28;20385;-68
2022/06/12 04:00:40;;;;;;;1430.43;999.90;;;13.50;89.00;;;;;;4952811;28;20673;-68
2022/06/12 04:03:23;;;;;;;1340.73;999.27;;;13.60;88.90;;;;;;4989523;28;20338;-68
2022/06/12 04:05:54;;;;;;;1374.97;999.90;;;13.60;89.10;;;;;;4979306;28;20320;-68
2022/06/12 04:08:50;;;;;;;1366.17;999.90;;;13.70;89.10;;;;;;4975588;28;20297;-68
2022/06/12 04:11:19;;;;;;;1353.60;999.90;;;13.70;89.10;;;;;;4983417;28;20814;-68
2022/06/12 04:13:46;;;;;;;1322.30;979.43;;;13.80;89.20;;;;;;4986554;28;20289;-68
2022/06/12 04:16:14;;;;;;;1378.93;999.90;;;13.90;89.00;;;;;;4986332;28;20305;-68
2022/06/12 04:18:40;;;;;;;1332.10;999.90;;;14.00;89.00;;;;;;4977423;28;20299;-68
2022/06/12 04:21:33;;;;;;;1384.07;999.90;;;14.00;88.90;;;;;;4986666;28;20984;-68
2022/06/12 04:24:16;;;;;;;1283.13;997.33;;;14.20;88.80;;;;;;4960305;28;20391;-68
2022/06/12 04:26:59;;;;;;;1356.13;999.90;;;14.20;88.50;;;;;;4980042;28;20298;-68
2022/06/12 04:29:32;;;;;;;1428.50;999.90;;;14.40;88.60;;;;;;4982911;28;20305;-68
2022/06/12 04:32:01;;;;;;;1549.17;999.90;;;14.50;88.40;;;;;;4958373;28;20298;-69
2022/06/12 04:34:31;;;;;;;1447.47;999.90;;;14.70;88.60;;;;;;4981644;28;20296;-68
2022/06/12 04:37:03;;;;;;;1463.90;999.90;;;15.10;89.20;;;;;;4981254;28;20798;-69
2022/06/12 04:39:32;;;;;;;1469.00;999.90;;;15.90;89.20;;;;;;4976191;28;20296;-69
2022/06/12 04:42:00;;;;;;;1991.60;999.90;;;16.70;86.30;;;;;;4985689;28;20782;-69
2022/06/12 04:44:26;;;;;;;1533.70;999.90;;;17.50;84.10;;;;;;4957099;28;20363;-69
2022/06/12 04:46:55;;;;;;;1999.90;999.90;;;18.20;81.80;;;;;;4973781;28;20309;-69
2022/06/12 04:49:24;;;;;;;1999.90;999.90;;;18.60;79.50;;;;;;4972627;28;20821;-69
2022/06/12 04:51:52;;;;;;;1999.90;999.90;;;18.50;77.60;;;;;;4981855;28;20301;-69
2022/06/12 04:54:18;;;;;;;1999.90;999.90;;;18.10;77.40;;;;;;4976935;28;20301;-69
2022/06/12 04:56:45;;;;;;;1999.90;999.90;;;17.80;78.00;;;;;;4960710;28;20348;-69
2022/06/12 04:59:13;;;;;;;1891.40;999.90;;;17.40;78.60;;;;;;4963206;28;20318;-69
2022/06/12 05:01:39;;;;;;;1999.90;999.90;;;17.10;79.10;;;;;;4982901;28;20722;-69
2022/06/12 05:04:06;;;;;;;1999.90;999.90;;;17.00;80.70;;;;;;4968941;28;20360;-69
2022/06/12 05:06:33;;;;;;;1989.40;999.90;;;17.60;81.00;;;;;;4950467;28;20337;-69
2022/06/12 05:09:00;;;;;;;1999.90;999.90;;;18.20;79.50;;;;;;4953514;28;20297;-69
2022/06/12 05:11:27;;;;;;;1999.90;999.90;;;18.70;78.00;;;;;;4958539;28;20750;-69
2022/06/12 05:13:53;;;;;;;1999.90;999.90;;;19.20;77.00;;;;;;4966508;28;20378;-69
2022/06/12 05:16:39;;;;;;;1999.90;999.90;;;19.80;75.10;;;;;;4981757;28;20313;-69
2022/06/12 05:19:09;;;;;;;1999.90;999.90;;;20.50;72.50;;;;;;4972764;28;20046;-69
2022/06/12 05:21:35;;;;;;;1999.90;999.90;;;21.10;71.20;;;;;;4977518;28;20383;-69
2022/06/12 05:24:01;;;;;;;1999.90;999.90;;;21.50;69.50;;;;;;4964102;28;20381;-69
2022/06/12 05:26:28;;;;;;;1999.90;999.90;;;21.80;68.40;;;;;;4974500;28;20046;-69
2022/06/12 05:28:55;;;;;;;1999.90;999.90;;;22.10;67.30;;;;;;4976086;28;20082;-69
2022/06/12 05:31:21;;;;;;;1999.90;999.90;;;22.20;66.40;;;;;;4982029;28;20305;-69
2022/06/12 05:33:47;;;;;;;1999.90;999.90;;;21.60;66.50;;;;;;4968437;28;20308;-69
2022/06/12 05:36:15;;;;;;;1999.90;999.90;;;20.90;67.70;;;;;;4969472;28;20050;-69
2022/06/12 05:38:43;;;;;;;1999.90;999.90;;;20.20;68.70;;;;;;4968223;28;20597;-69
2022/06/12 05:41:09;;;;;;;1999.90;999.90;;;19.90;70.40;;;;;;4985410;28;20721;-69
2022/06/12 05:43:35;;;;;;;1999.90;999.90;;;20.00;70.80;;;;;;4968435;28;20389;-69
2022/06/12 05:46:01;;;;;;;1999.90;999.90;;;20.40;70.30;;;;;;4953596;28;20035;-70
2022/06/12 05:48:26;;;;;;;1999.90;999.90;;;20.70;68.50;;;;;;4984192;28;20411;-70
2022/06/12 05:50:56;;;;;;;1999.90;999.90;;;20.80;67.70;;;;;;4983370;28;20109;-70
2022/06/12 05:53:23;;;;;;;1999.90;999.90;;;20.90;67.80;;;;;;4969527;28;20840;-70
2022/06/12 05:55:50;;;;;;;1999.90;999.90;;;21.00;67.40;;;;;;4968281;28;20806;-69
2022/06/12 05:58:16;;;;;;;1999.90;999.90;;;21.40;66.90;;;;;;4984474;28;20356;-69
2022/06/12 06:00:42;;;;;;;1999.90;999.90;;;21.70;65.80;;;;;;4974101;28;20337;-69
2022/06/12 06:03:08;;;;;;;1999.90;999.90;;;21.60;65.80;;;;;;4982303;28;20617;-70
2022/06/12 06:05:38;;;;;;;1999.90;999.90;;;21.30;66.00;;;;;;4998074;28;20354;-70
2022/06/12 06:08:06;;;;;;;1999.90;999.90;;;20.80;66.60;;;;;;4976664;28;20542;-69
2022/06/12 06:10:32;;;;;;;1999.90;999.90;;;20.40;68.20;;;;;;4963730;28;20658;-69
2022/06/12 06:12:58;;;;;;;1999.90;999.90;;;20.50;68.70;;;;;;4977583;28;20777;-69
2022/06/12 06:15:24;;;;;;;1999.90;999.90;;;20.80;68.10;;;;;;4979088;28;20309;-69
2022/06/12 06:17:52;;;;;;;1999.90;999.90;;;21.00;67.60;;;;;;4979341;28;20403;-70
2022/06/12 06:20:22;;;;;;;1999.90;999.90;;;21.20;67.50;;;;;;4978613;28;20304;-70
2022/06/12 06:22:50;;;;;;;1999.90;999.90;;;21.40;66.50;;;;;;4982861;28;20359;-69
2022/06/12 06:25:15;;;;;;;1999.90;999.90;;;21.90;66.00;;;;;;4979566;28;20049;-69
2022/06/12 06:27:41;;;;;;;1999.90;999.90;;;22.40;65.20;;;;;;4976679;28;20306;-69
2022/06/12 06:30:08;;;;;;;1999.90;999.90;;;22.70;63.70;;;;;;4954528;28;20213;-70
2022/06/12 06:32:34;;;;;;;1999.90;999.90;;;23.00;63.20;;;;;;4978154;28;20451;-69
2022/06/12 06:35:01;;;;;;;1999.90;999.90;;;22.90;62.00;;;;;;4982160;28;20109;-69
2022/06/12 06:37:27;;;;;;;1999.90;999.90;;;22.20;62.60;;;;;;4975778;28;20069;-70
2022/06/12 06:39:52;;;;;;;1999.90;999.90;;;21.60;63.60;;;;;;4963416;28;20768;-70
2022/06/12 06:42:18;;;;;;;1999.90;999.90;;;21.80;63.90;;;;;;4998537;28;20038;-69
2022/06/12 06:47:28;;;;;;;1999.90;999.90;;;21.60;63.10;;;;;;4987217;28;20137;-69
2022/06/12 06:49:54;;;;;;;1999.90;999.90;;;21.30;63.00;;;;;;4968171;28;20721;-69
2022/06/12 06:52:20;;;;;;;1988.33;999.90;;;21.50;63.60;;;;;;4985896;28;20038;-69
2022/06/12 06:54:46;;;;;;;1999.90;999.90;;;21.80;63.00;;;;;;4977132;28;20129;-70
2022/06/12 06:57:12;;;;;;;1999.90;999.90;;;21.80;61.90;;;;;;4954836;28;20042;-70
2022/06/12 06:59:38;;;;;;;1997.50;999.90;;;21.80;61.50;;;;;;4996630;28;20062;-70
2022/06/12 07:02:04;;;;;;;1999.90;999.90;;;21.60;62.40;;;;;;4969180;28;20427;-70
2022/06/12 07:04:30;;;;;;;1995.00;999.90;;;21.40;63.00;;;;;;4965987;28;20081;-70
2022/06/12 07:06:57;;;;;;;1999.90;999.90;;;21.40;62.50;;;;;;4964055;28;20082;-70
2022/06/12 07:09:23;;;;;;;1999.90;999.90;;;21.40;62.80;;;;;;4993199;28;20143;-70
2022/06/12 07:11:48;;;;;;;1969.53;999.90;;;21.50;62.60;;;;;;4948704;28;20487;-70
2022/06/12 07:14:14;;;;;;;1999.90;999.90;;;21.60;62.80;;;;;;4985858;28;20054;-70
2022/06/12 07:16:40;;;;;;;1815.83;999.90;;;21.60;62.20;;;;;;4936249;28;20629;-70
2022/06/12 07:19:07;;;;;;;1973.07;999.90;;;21.40;62.10;;;;;;4983056;28;20491;-70
2022/06/12 07:21:34;;;;;;;1702.00;999.90;;;21.20;62.80;;;;;;4971913;28;20596;-70
2022/06/12 07:24:01;;;;;;;1633.77;999.90;;;20.80;61.80;;;;;;4986322;28;20499;-70
2022/06/12 07:26:46;;;;;;;1585.37;999.90;;;20.30;62.30;;;;;;4986456;28;20456;-70
2022/06/12 07:29:13;;;;;;;1485.78;999.90;;;20.20;63.90;;;;;;4986481;28;20174;-70
2022/06/12 07:31:39;;;;;;;1563.20;999.90;;;20.20;64.10;;;;;;4970698;28;20045;-70
2022/06/12 07:34:06;;;;;;;1281.50;999.90;;;20.10;64.60;;;;;;4969272;28;20129;-70
2022/06/12 07:36:35;;;;;;;1244.03;999.90;;;19.90;63.70;;;;;;4967698;28;20043;-70
2022/06/12 07:39:02;;;;;;;1468.93;999.90;;;19.80;64.00;;;;;;4983669;28;20115;-70
2022/06/12 07:41:28;;;;;;;1399.70;999.90;;;19.80;64.60;;;;;;4953674;28;20042;-70
2022/06/12 07:43:54;;;;;;;1445.33;999.90;;;19.80;64.40;;;;;;4981397;28;20034;-70
2022/06/12 07:46:20;;;;;;;1544.07;999.90;;;19.90;64.50;;;;;;4981665;28;20049;-70
2022/06/12 07:48:47;;;;;;;1587.67;999.90;;;20.00;64.00;;;;;;4982029;28;20046;-70
2022/06/12 07:51:17;;;;;;;1620.50;999.90;;;20.10;64.00;;;;;;4979476;28;20038;-70
2022/06/12 07:53:44;;;;;;;1323.57;999.90;;;20.20;63.30;;;;;;4984471;28;20347;-70
2022/06/12 07:56:11;;;;;;;1405.03;999.90;;;20.30;63.00;;;;;;4983339;28;20470;-70
2022/06/12 07:58:37;;;;;;;1409.47;999.90;;;20.10;61.10;;;;;;4984458;28;20042;-70
2022/06/12 08:01:07;;;;;;;1367.50;999.90;;;20.00;60.30;;;;;;4982701;28;20070;-69
2022/06/12 08:03:34;;;;;;;1451.27;999.90;;;20.00;61.60;;;;;;4978802;28;20559;-69
2022/06/12 08:05:59;;;;;;;1486.00;999.90;;;20.10;61.60;;;;;;4975522;28;20045;-69
2022/06/12 08:08:27;;;;;;;1388.10;999.90;;;20.30;61.80;;;;;;4967688;28;20038;-70
2022/06/12 08:10:53;;;;;;;1232.53;999.90;;;20.50;61.50;;;;;;4982563;28;20035;-70
2022/06/12 08:13:19;;;;;;;1298.57;999.90;;;20.40;59.20;;;;;;4981288;28;20046;-70
2022/06/12 08:15:48;;;;;;;1350.30;999.90;;;20.30;59.50;;;;;;4983292;28;20034;-70
2022/06/12 08:18:15;;;;;;;1374.50;999.90;;;20.20;59.60;;;;;;4978311;28;20060;-70
2022/06/12 08:20:45;;;;;;;1398.23;999.90;;;20.20;60.60;;;;;;4976219;28;20042;-69
2022/06/12 08:23:28;;;;;;;1300.07;999.90;;;20.30;60.80;;;;;;4971266;28;20046;-69
2022/06/12 08:26:16;;;;;;;1216.40;999.90;;;20.30;60.40;;;;;;4990490;28;20045;-70
2022/06/12 08:28:56;;;;;;;1337.07;999.90;;;20.30;58.90;;;;;;4982876;28;20553;-70
2022/06/12 08:31:29;;;;;;;1335.50;999.90;;;20.40;61.30;;;;;;4973947;28;20042;-70
2022/06/12 08:34:00;;;;;;;1418.63;999.90;;;20.40;61.00;;;;;;4983668;28;20026;-70
2022/06/12 08:36:26;;;;;;;1294.13;999.90;;;20.50;60.80;;;;;;4981226;28;20121;-70
2022/06/12 08:38:52;;;;;;;1376.33;999.90;;;20.60;60.30;;;;;;4984123;28;20216;-70
2022/06/12 08:41:35;;;;;;;1247.67;999.90;;;20.70;59.80;;;;;;4978228;28;20058;-70
2022/06/12 08:44:16;;;;;;;1250.70;999.90;;;20.80;58.80;;;;;;4971368;28;20141;-70
2022/06/12 08:47:06;;;;;;;1245.50;999.90;;;20.90;58.40;;;;;;4987437;28;20073;-70
2022/06/12 08:49:56;;;;;;;1200.97;999.90;;;21.00;58.40;;;;;;4981576;28;20039;-70
2022/06/12 08:52:39;;;;;;;1230.73;999.90;;;20.90;56.30;;;;;;4977690;28;20053;-70
2022/06/12 08:55:20;;;;;;;1223.70;999.90;;;20.80;57.20;;;;;;4997337;28;20114;-70
2022/06/12 08:57:46;;;;;;;1209.13;999.90;;;20.80;55.90;;;;;;4981123;28;20550;-70
2022/06/12 09:00:19;;;;;;;1193.47;999.90;;;20.70;57.10;;;;;;4989034;28;20276;-70
2022/06/12 09:02:46;;;;;;;1229.93;999.90;;;20.80;57.30;;;;;;4975462;28;20109;-70
2022/06/12 09:05:19;;;;;;;1203.63;999.90;;;20.80;57.70;;;;;;4951178;28;20049;-70
2022/06/12 09:08:10;;;;;;;1197.93;999.90;;;20.90;56.90;;;;;;4967340;28;20039;-70
2022/06/12 09:10:56;;;;;;;1260.50;999.90;;;20.90;57.30;;;;;;4990254;28;20065;-70
2022/06/12 09:13:33;;;;;;;1225.77;999.90;;;21.00;57.70;;;;;;4989888;28;20046;-70
2022/06/12 09:16:27;;;;;;;1186.07;999.90;;;21.00;57.20;;;;;;4989040;28;20038;-70
2022/06/12 09:19:12;;;;;;;1280.57;999.90;;;20.90;57.60;;;;;;4951314;28;20041;-70
2022/06/12 09:21:46;;;;;;;1344.40;999.90;;;21.10;58.60;;;;;;4979498;28;20050;-70
2022/06/12 09:25:03;;;;;;;1190.95;999.90;;;21.20;58.40;;;;;;4966727;28;20494;-70
2022/06/12 09:27:43;;;;;;;1273.03;999.90;;;21.30;57.80;;;;;;4939266;28;20046;-70
2022/06/12 09:30:28;;;;;;;1229.70;999.90;;;21.30;56.50;;;;;;4975388;28;20049;-70
2022/06/12 09:33:10;;;;;;;1203.82;999.90;;;21.30;56.00;;;;;;4968612;28;20038;-70
2022/06/12 09:35:39;;;;;;;1221.63;999.90;;;21.40;56.40;;;;;;4970521;28;20120;-71
2022/06/12 09:38:23;;;;;;;1244.47;999.90;;;21.50;56.60;;;;;;4969306;28;20046;-70
2022/06/12 09:41:10;;;;;;;1284.27;999.90;;;21.70;57.00;;;;;;4974498;28;20495;-70
2022/06/12 09:43:39;;;;;;;1222.10;999.90;;;21.80;54.90;;;;;;4991556;28;20042;-74
2022/06/12 09:46:08;;;;;;;1262.07;999.90;;;22.10;56.20;;;;;;4977961;28;20055;-70
2022/06/12 09:48:48;;;;;;;1192.83;999.90;;;22.20;54.90;;;;;;4960242;28;20234;-70
2022/06/12 09:51:42;;;;;;;1166.93;999.90;;;22.30;54.90;;;;;;4970841;28;20050;-70
2022/06/12 09:54:36;;;;;;;1164.57;999.90;;;22.30;51.90;;;;;;4962188;28;20047;-71
2022/06/12 09:57:07;;;;;;;1137.67;999.90;;;22.20;52.10;;;;;;4972343;28;20046;-70
2022/06/12 09:59:41;;;;;;;1195.47;999.90;;;22.20;53.60;;;;;;4987276;28;20527;-71
2022/06/12 10:02:32;;;;;;;1169.23;999.90;;;22.30;54.70;;;;;;4972794;28;20050;-70
2022/06/12 10:05:24;;;;;;;1192.87;999.90;;;22.30;51.50;;;;;;4966007;28;20073;-71
2022/06/12 10:08:04;;;;;;;1177.80;999.90;;;22.10;54.00;;;;;;4981380;28;20471;-71
2022/06/12 10:10:46;;;;;;;1201.43;999.90;;;22.00;53.20;;;;;;4979821;28;20042;-71
2022/06/12 10:13:18;;;;;;;1348.60;999.90;;;22.10;54.50;;;;;;4987454;28;20054;-71
2022/06/12 10:15:50;;;;;;;1171.37;999.90;;;22.30;55.40;;;;;;4986209;28;20034;-71
2022/06/12 10:18:27;;;;;;;1195.47;999.90;;;22.60;51.60;;;;;;4974943;28;20074;-71
2022/06/12 10:20:59;;;;;;;1186.80;999.90;;;22.60;52.30;;;;;;4974773;28;20038;-71
2022/06/12 10:23:25;;;;;;;1204.10;999.90;;;22.20;52.80;;;;;;4967688;28;20042;-70
2022/06/12 10:25:55;;;;;;;1159.83;999.90;;;22.10;53.00;;;;;;4974432;28;20057;-70
2022/06/12 10:28:23;;;;;;;1193.40;999.90;;;22.00;52.50;;;;;;4968283;28;20046;-70
2022/06/12 10:31:10;;;;;;;1221.50;999.90;;;21.90;53.60;;;;;;4959036;28;20049;-71
2022/06/12 10:33:42;;;;;;;1188.93;999.90;;;21.90;52.50;;;;;;4991158;28;20384;-70
2022/06/12 10:36:31;;;;;;;1187.77;999.90;;;21.60;53.90;;;;;;4978390;28;20057;-70
2022/06/12 10:39:19;;;;;;;1178.30;999.90;;;21.70;54.10;;;;;;4989298;28;20038;-70
2022/06/12 10:42:07;;;;;;;1187.13;999.90;;;21.80;53.70;;;;;;4976129;28;20499;-70
2022/06/12 10:44:53;;;;;;;1164.57;999.90;;;21.80;53.40;;;;;;4982601;28;20057;-70
2022/06/12 10:47:29;;;;;;;1168.83;999.90;;;21.80;53.40;;;;;;4988150;28;20049;-70
2022/06/12 10:50:13;;;;;;;1149.90;999.90;;;21.90;53.90;;;;;;4964313;28;20031;-70
2022/06/12 10:52:50;;;;;;;1181.93;999.90;;;22.10;53.00;;;;;;4980681;28;20368;-68
2022/06/12 10:55:23;;;;;;;1160.97;999.90;;;22.00;52.80;;;;;;4996417;28;20072;-68
2022/06/12 10:58:24;;;;;;;1202.90;999.90;;;22.00;54.00;;;;;;4963226;28;20049;-68
2022/06/12 11:00:54;;;;;;;1177.60;999.90;;;22.10;54.70;;;;;;4953112;28;20104;-70
2022/06/12 11:03:47;;;;;;;1337.37;999.90;;;22.10;53.70;;;;;;4977955;28;20046;-71
2022/06/12 11:06:24;;;;;;;1182.03;999.90;;;22.00;53.50;;;;;;4971889;28;20061;-71
2022/06/12 11:08:58;;;;;;;1204.17;999.90;;;21.70;53.60;;;;;;4984428;28;20088;-70
2022/06/12 11:11:42;;;;;;;1204.23;999.90;;;21.70;55.10;;;;;;5000872;28;20084;-70
2022/06/12 11:14:28;;;;;;;1189.38;999.90;;;21.40;54.50;;;;;;4984946;28;20081;-70
2022/06/12 11:17:12;;;;;;;1179.80;999.90;;;21.50;55.50;;;;;;4986061;28;20495;-70
2022/06/12 11:20:01;;;;;;;1163.87;999.90;;;21.40;53.20;;;;;;4985832;28;20050;-70
2022/06/12 11:23:09;;;;;;;1164.57;999.90;;;21.30;52.40;;;;;;4985437;28;20050;-70
2022/06/12 11:25:49;;;;;;;1157.03;999.90;;;21.20;53.70;;;;;;4955320;28;20053;-70
2022/06/12 11:28:33;;;;;;;1209.57;999.90;;;21.20;54.60;;;;;;4976629;28;20054;-71
2022/06/12 11:31:13;;;;;;;1188.33;999.90;;;21.10;54.50;;;;;;4998703;28;20162;-71
2022/06/12 11:33:49;;;;;;;1263.37;999.90;;;21.10;55.20;;;;;;4971003;28;20483;-68
2022/06/12 11:36:36;;;;;;;1153.57;999.90;;;21.20;55.30;;;;;;4965378;28;20046;-68
2022/06/12 11:39:28;;;;;;;1184.77;999.90;;;21.40;53.80;;;;;;4981997;28;20097;-68
2022/06/12 11:42:17;;;;;;;1173.50;999.90;;;21.40;53.10;;;;;;5002169;28;20066;-68
2022/06/12 11:45:04;;;;;;;1184.07;999.90;;;21.20;53.30;;;;;;4979669;28;20514;-68
2022/06/12 11:47:51;;;;;;;1186.87;999.90;;;21.00;52.20;;;;;;4978314;28;20061;-69
2022/06/12 11:50:20;;;;;;;1177.40;999.90;;;20.90;53.40;;;;;;4993760;28;20046;-67
2022/06/12 11:52:45;;;;;;;1206.30;999.90;;;21.00;53.40;;;;;;4970019;28;20043;-67
2022/06/12 11:55:33;;;;;;;1171.97;999.90;;;21.10;54.70;;;;;;5002522;28;20744;-68
2022/06/12 11:58:50;;;;;;;1162.67;999.90;;;20.90;51.80;;;;;;4997476;28;20042;-69
2022/06/12 12:01:25;;;;;;;1150.37;999.90;;;21.10;52.20;;;;;;4949346;28;20050;-68
2022/06/12 12:04:28;;;;;;;1187.20;999.90;;;21.00;53.30;;;;;;4985906;28;20061;-68
2022/06/12 12:07:26;;;;;;;1186.90;999.90;;;21.30;54.30;;;;;;4976990;28;20895;-67
2022/06/12 12:10:15;;;;;;;1171.37;999.90;;;21.70;53.50;;;;;;4988422;28;20050;-70
2022/06/12 12:12:46;;;;;;;1210.57;999.90;;;21.80;52.00;;;;;;4983723;28;20072;-69
2022/06/12 12:15:23;;;;;;;1175.03;999.90;;;21.80;52.80;;;;;;4984259;28;20039;-67
2022/06/12 12:17:52;;;;;;;1190.63;999.90;;;21.70;52.80;;;;;;4967279;28;20046;-67
2022/06/12 12:20:28;;;;;;;1178.40;999.90;;;21.30;53.30;;;;;;4980073;28;20381;-67
2022/06/12 12:23:03;;;;;;;1162.20;999.90;;;21.20;54.20;;;;;;4967348;28;20594;-67
2022/06/12 12:25:38;;;;;;;1141.60;999.90;;;21.20;53.70;;;;;;4983405;28;20046;-67
2022/06/12 12:28:34;;;;;;;1199.53;999.90;;;21.10;52.00;;;;;;4982636;28;20121;-68
2022/06/12 12:31:18;;;;;;;1201.57;999.90;;;21.10;53.60;;;;;;4976906;28;20058;-68
2022/06/12 12:33:46;;;;;;;1206.43;999.90;;;21.30;53.60;;;;;;4977666;28;20041;-68
2022/06/12 12:41:48;;;;;;;1182.93;999.90;;;21.20;54.40;;;;;;4996105;28;20042;-68
2022/06/12 12:44:28;;;;;;;1216.90;999.90;;;21.30;54.10;;;;;;4979532;28;20522;-68
2022/06/12 12:46:54;;;;;;;1186.03;999.90;;;21.40;54.80;;;;;;4980121;28;20046;-68
2022/06/12 12:49:30;;;;;;;1147.23;999.90;;;21.40;53.00;;;;;;4977114;28;20042;-68
2022/06/12 12:52:18;;;;;;;1204.27;999.90;;;21.70;52.30;;;;;;4960132;28;20431;-68